Terminal Aerodrome Forecast
Issued by NWS

Home | Current Version | Previous Version | Text Only | Print | Product List | Glossary On
Versions: 1 2 3 4 5 6 7 8 9 10 11 12 13 14 15 16 17 18 19 20 21 22 23 24 25 26 27 28 29 30 31 32 33 34 35
000
FTUS45 KGJT 260932 AAB
TAFCNY
TAF AMD
KCNY 260932Z 2610/2706 VRB03KT 2SM -SN BR BKN030 OVC035
      TEMPO 2610/2614 VRB03KT 1SM -SN BR OVC020
     FM261400 VRB03KT 5SM BR OVC020
     FM261800 34007KT P6SM VCSH BKN050
     FM270200 34005KT P6SM BKN080=

USA.gov is the U.S. government's official web portal to all federal, state and local government web resources and services.